sensor_id;sensor_type;location;lat;lon;timestamp;pressure;altitude;pressure_sealevel;temperature;humidity
8894;BME280;4483;48.622;9.230;2023-05-07T00:00:30;97768.75;;;13.66;98.08
8894;BME280;4483;48.622;9.230;2023-05-07T00:02:59;97771.50;;;13.63;97.19
8894;BME280;4483;48.622;9.230;2023-05-07T00:05:26;97775.00;;;13.62;96.79
8894;BME280;4483;48.622;9.230;2023-05-07T00:07:53;97768.22;;;13.59;96.91
8894;BME280;4483;48.622;9.230;2023-05-07T00:10:19;97755.69;;;13.52;97.49
8894;BME280;4483;48.622;9.230;2023-05-07T00:12:46;97770.16;;;13.56;97.31
8894;BME280;4483;48.622;9.230;2023-05-07T00:15:13;97768.50;;;13.55;97.27
8894;BME280;4483;48.622;9.230;2023-05-07T00:17:41;97765.16;;;13.53;97.59
8894;BME280;4483;48.622;9.230;2023-05-07T00:20:08;97768.63;;;13.52;97.35
8894;BME280;4483;48.622;9.230;2023-05-07T00:22:35;97772.16;;;13.51;97.92
8894;BME280;4483;48.622;9.230;2023-05-07T00:25:01;97767.16;;;13.48;98.33
8894;BME280;4483;48.622;9.230;2023-05-07T00:27:28;97770.72;;;13.45;98.31
8894;BME280;4483;48.622;9.230;2023-05-07T00:29:54;97767.38;;;13.43;98.39
8894;BME280;4483;48.622;9.230;2023-05-07T00:32:21;97767.56;;;13.40;98.66
8894;BME280;4483;48.622;9.230;2023-05-07T00:34:49;97762.44;;;13.39;99.44
8894;BME280;4483;48.622;9.230;2023-05-07T00:37:16;97771.13;;;13.38;98.91
8894;BME280;4483;48.622;9.230;2023-05-07T00:39:43;97769.47;;;13.37;99.09
8894;BME280;4483;48.622;9.230;2023-05-07T00:42:09;97770.28;;;13.37;99.05
8894;BME280;4483;48.622;9.230;2023-05-07T00:44:36;97760.03;;;13.36;98.76
8894;BME280;4483;48.622;9.230;2023-05-07T00:47:03;97760.09;;;13.34;98.70
8894;BME280;4483;48.622;9.230;2023-05-07T00:49:37;97755.91;;;13.32;98.99
8894;BME280;4483;48.622;9.230;2023-05-07T00:52:06;97755.41;;;13.25;99.41
8894;BME280;4483;48.622;9.230;2023-05-07T00:54:33;97757.34;;;13.22;99.18
8894;BME280;4483;48.622;9.230;2023-05-07T00:57:02;97753.06;;;13.21;100.00
8894;BME280;4483;48.622;9.230;2023-05-07T00:59:29;97748.91;;;13.18;99.87
8894;BME280;4483;48.622;9.230;2023-05-07T01:01:56;97748.38;;;13.11;99.65
8894;BME280;4483;48.622;9.230;2023-05-07T01:04:22;97739.09;;;13.07;99.81
8894;BME280;4483;48.622;9.230;2023-05-07T01:06:49;97746.13;;;13.05;100.00
8894;BME280;4483;48.622;9.230;2023-05-07T01:09:19;97752.19;;;13.04;100.00
8894;BME280;4483;48.622;9.230;2023-05-07T01:11:46;97748.84;;;13.02;100.00
8894;BME280;4483;48.622;9.230;2023-05-07T01:14:13;97756.59;;;13.02;100.00
8894;BME280;4483;48.622;9.230;2023-05-07T01:16:40;97748.06;;;13.00;100.00
8894;BME280;4483;48.622;9.230;2023-05-07T01:19:08;97747.25;;;13.00;100.00
8894;BME280;4483;48.622;9.230;2023-05-07T01:21:37;97755.81;;;13.00;100.00
8894;BME280;4483;48.622;9.230;2023-05-07T01:24:06;97748.97;;;12.99;100.00
8894;BME280;4483;48.622;9.230;2023-05-07T01:26:33;97755.97;;;12.97;100.00
8894;BME280;4483;48.622;9.230;2023-05-07T01:29:00;97748.38;;;12.94;100.00
8894;BME280;4483;48.622;9.230;2023-05-07T01:31:27;97743.44;;;12.90;100.00
8894;BME280;4483;48.622;9.230;2023-05-07T01:33:54;97750.34;;;12.89;100.00
8894;BME280;4483;48.622;9.230;2023-05-07T01:36:24;97741.09;;;12.85;100.00
8894;BME280;4483;48.622;9.230;2023-05-07T01:38:52;97737.69;;;12.85;100.00
8894;BME280;4483;48.622;9.230;2023-05-07T01:41:21;97733.41;;;12.84;100.00
8894;BME280;4483;48.622;9.230;2023-05-07T01:43:48;97737.69;;;12.85;100.00
8894;BME280;4483;48.622;9.230;2023-05-07T01:46:17;97736.84;;;12.84;100.00
8894;BME280;4483;48.622;9.230;2023-05-07T01:48:44;97742.00;;;12.84;100.00
8894;BME280;4483;48.622;9.230;2023-05-07T01:51:11;97735.09;;;12.85;100.00
8894;BME280;4483;48.622;9.230;2023-05-07T01:53:38;97744.75;;;12.81;100.00
8894;BME280;4483;48.622;9.230;2023-05-07T01:56:06;97746.50;;;12.81;100.00
8894;BME280;4483;48.622;9.230;2023-05-07T01:58:34;97740.56;;;12.79;100.00
8894;BME280;4483;48.622;9.230;2023-05-07T02:01:01;97743.22;;;12.77;100.00
8894;BME280;4483;48.622;9.230;2023-05-07T02:03:27;97739.13;;;12.73;100.00
8894;BME280;4483;48.622;9.230;2023-05-07T02:05:54;97745.22;;;12.72;100.00
8894;BME280;4483;48.622;9.230;2023-05-07T02:08:21;97738.44;;;12.70;100.00
8894;BME280;4483;48.622;9.230;2023-05-07T02:10:47;97747.94;;;12.69;100.00
8894;BME280;4483;48.622;9.230;2023-05-07T02:13:15;97751.53;;;12.67;100.00
8894;BME280;4483;48.622;9.230;2023-05-07T02:15:43;97747.34;;;12.64;100.00
8894;BME280;4483;48.622;9.230;2023-05-07T02:18:12;97743.31;;;12.59;100.00
8894;BME280;4483;48.622;9.230;2023-05-07T02:20:38;97742.63;;;12.55;100.00
8894;BME280;4483;48.622;9.230;2023-05-07T02:23:05;97738.44;;;12.53;100.00
8894;BME280;4483;48.622;9.230;2023-05-07T02:25:32;97747.22;;;12.50;100.00
8894;BME280;4483;48.622;9.230;2023-05-07T02:27:58;97736.09;;;12.48;100.00
8894;BME280;4483;48.622;9.230;2023-05-07T02:30:25;97744.91;;;12.44;100.00
8894;BME280;4483;48.622;9.230;2023-05-07T02:32:53;97742.41;;;12.43;100.00
8894;BME280;4483;48.622;9.230;2023-05-07T02:35:20;97733.06;;;12.40;100.00
8894;BME280;4483;48.622;9.230;2023-05-07T02:37:47;97742.63;;;12.38;100.00
8894;BME280;4483;48.622;9.230;2023-05-07T02:40:13;97736.66;;;12.38;100.00
8894;BME280;4483;48.622;9.230;2023-05-07T02:42:40;97740.22;;;12.35;100.00
8894;BME280;4483;48.622;9.230;2023-05-07T02:45:08;97754.03;;;12.34;100.00
8894;BME280;4483;48.622;9.230;2023-05-07T02:47:34;97754.09;;;12.33;100.00
8894;BME280;4483;48.622;9.230;2023-05-07T02:50:03;97750.75;;;12.31;100.00
8894;BME280;4483;48.622;9.230;2023-05-07T02:52:30;97753.50;;;12.28;100.00
8894;BME280;4483;48.622;9.230;2023-05-07T02:54:56;97754.47;;;12.25;100.00
8894;BME280;4483;48.622;9.230;2023-05-07T02:57:23;97754.63;;;12.22;100.00
8894;BME280;4483;48.622;9.230;2023-05-07T02:59:49;97751.59;;;12.14;100.00
8894;BME280;4483;48.622;9.230;2023-05-07T03:02:16;97752.34;;;12.16;100.00
8894;BME280;4483;48.622;9.230;2023-05-07T03:04:43;97745.59;;;12.13;100.00
8894;BME280;4483;48.622;9.230;2023-05-07T03:07:11;97742.16;;;12.13;100.00
8894;BME280;4483;48.622;9.230;2023-05-07T03:09:37;97737.97;;;12.10;100.00
8894;BME280;4483;48.622;9.230;2023-05-07T03:12:04;97729.41;;;12.10;100.00
8894;BME280;4483;48.622;9.230;2023-05-07T03:14:31;97737.22;;;12.08;100.00
8894;BME280;4483;48.622;9.230;2023-05-07T03:16:57;97727.88;;;12.06;100.00
8894;BME280;4483;48.622;9.230;2023-05-07T03:19:24;97730.66;;;12.01;100.00
8894;BME280;4483;48.622;9.230;2023-05-07T03:21:50;97729.22;;;11.96;100.00
8894;BME280;4483;48.622;9.230;2023-05-07T03:24:18;97734.44;;;11.94;100.00
8894;BME280;4483;48.622;9.230;2023-05-07T03:26:45;97726.88;;;11.91;100.00
8894;BME280;4483;48.622;9.230;2023-05-07T03:29:12;97730.41;;;11.89;100.00
8894;BME280;4483;48.622;9.230;2023-05-07T03:31:38;97732.09;;;11.90;100.00
8894;BME280;4483;48.622;9.230;2023-05-07T03:34:05;97726.19;;;11.88;100.00
8894;BME280;4483;48.622;9.230;2023-05-07T03:36:31;97727.06;;;11.87;100.00
8894;BME280;4483;48.622;9.230;2023-05-07T03:38:58;97728.88;;;11.85;100.00
8894;BME280;4483;48.622;9.230;2023-05-07T03:41:26;97728.06;;;11.84;100.00
8894;BME280;4483;48.622;9.230;2023-05-07T03:43:52;97733.34;;;11.81;100.00
8894;BME280;4483;48.622;9.230;2023-05-07T03:46:19;97732.66;;;11.78;100.00
8894;BME280;4483;48.622;9.230;2023-05-07T03:48:46;97734.63;;;11.73;100.00
8894;BME280;4483;48.622;9.230;2023-05-07T03:51:12;97733.09;;;11.69;100.00
8894;BME280;4483;48.622;9.230;2023-05-07T03:53:39;97736.72;;;11.65;100.00
8894;BME280;4483;48.622;9.230;2023-05-07T03:56:05;97732.53;;;11.62;100.00
8894;BME280;4483;48.622;9.230;2023-05-07T03:58:33;97732.53;;;11.62;100.00
8894;BME280;4483;48.622;9.230;2023-05-07T04:01:00;97737.69;;;11.62;100.00
8894;BME280;4483;48.622;9.230;2023-05-07T04:03:27;97737.69;;;11.62;100.00
8894;BME280;4483;48.622;9.230;2023-05-07T04:05:53;97739.41;;;11.62;100.00
8894;BME280;4483;48.622;9.230;2023-05-07T04:08:20;97746.28;;;11.63;100.00
8894;BME280;4483;48.622;9.230;2023-05-07T04:10:47;97748.84;;;11.63;100.00
8894;BME280;4483;48.622;9.230;2023-05-07T04:13:13;97731.84;;;11.59;100.00
8894;BME280;4483;48.622;9.230;2023-05-07T04:15:41;97745.34;;;11.64;100.00
8894;BME280;4483;48.622;9.230;2023-05-07T04:18:08;97748.78;;;11.64;100.00
8894;BME280;4483;48.622;9.230;2023-05-07T04:20:34;97749.63;;;11.65;100.00
8894;BME280;4483;48.622;9.230;2023-05-07T04:23:02;97749.59;;;11.66;100.00
8894;BME280;4483;48.622;9.230;2023-05-07T04:25:29;97752.97;;;11.67;100.00
8894;BME280;4483;48.622;9.230;2023-05-07T04:27:55;97758.13;;;11.67;100.00
8894;BME280;4483;48.622;9.230;2023-05-07T04:30:22;97764.16;;;11.67;100.00
8894;BME280;4483;48.622;9.230;2023-05-07T04:32:50;97754.78;;;11.65;100.00
8894;BME280;4483;48.622;9.230;2023-05-07T04:35:17;97759.91;;;11.66;100.00
8894;BME280;4483;48.622;9.230;2023-05-07T04:37:43;97754.84;;;11.63;100.00
8894;BME280;4483;48.622;9.230;2023-05-07T04:40:10;97754.00;;;11.63;100.00
8894;BME280;4483;48.622;9.230;2023-05-07T04:42:37;97758.25;;;11.64;100.00
8894;BME280;4483;48.622;9.230;2023-05-07T04:45:04;97753.94;;;11.64;100.00
8894;BME280;4483;48.622;9.230;2023-05-07T04:47:31;97746.19;;;11.64;100.00
8894;BME280;4483;48.622;9.230;2023-05-07T04:49:59;97759.19;;;11.63;100.00
8894;BME280;4483;48.622;9.230;2023-05-07T04:52:26;97751.34;;;11.64;100.00
8894;BME280;4483;48.622;9.230;2023-05-07T04:54:52;97759.66;;;11.71;100.00
8894;BME280;4483;48.622;9.230;2023-05-07T04:57:19;97762.66;;;11.80;100.00
8894;BME280;4483;48.622;9.230;2023-05-07T04:59:46;97760.84;;;11.82;100.00
8894;BME280;4483;48.622;9.230;2023-05-07T05:02:12;97771.59;;;11.92;100.00
8894;BME280;4483;48.622;9.230;2023-05-07T05:04:39;97767.72;;;12.00;100.00
8894;BME280;4483;48.622;9.230;2023-05-07T05:07:07;97783.31;;;12.16;100.00
8894;BME280;4483;48.622;9.230;2023-05-07T05:09:33;97781.69;;;12.32;100.00
8894;BME280;4483;48.622;9.230;2023-05-07T05:12:00;97788.75;;;12.46;100.00
8894;BME280;4483;48.622;9.230;2023-05-07T05:14:26;97786.19;;;12.63;100.00
8894;BME280;4483;48.622;9.230;2023-05-07T05:16:53;97781.63;;;12.85;100.00
8894;BME280;4483;48.622;9.230;2023-05-07T05:19:20;97782.16;;;13.08;100.00
8894;BME280;4483;48.622;9.230;2023-05-07T05:21:46;97780.13;;;13.31;100.00
8894;BME280;4483;48.622;9.230;2023-05-07T05:24:14;97792.28;;;13.46;100.00
8894;BME280;4483;48.622;9.230;2023-05-07T05:26:41;97793.34;;;13.57;100.00
8894;BME280;4483;48.622;9.230;2023-05-07T05:29:08;97796.88;;;13.72;100.00
8894;BME280;4483;48.622;9.230;2023-05-07T05:31:34;97797.66;;;13.89;100.00
8894;BME280;4483;48.622;9.230;2023-05-07T05:34:02;97800.00;;;14.09;100.00
8894;BME280;4483;48.622;9.230;2023-05-07T05:36:28;97802.16;;;14.33;99.34
8894;BME280;4483;48.622;9.230;2023-05-07T05:38:55;97800.47;;;14.47;98.68
8894;BME280;4483;48.622;9.230;2023-05-07T05:41:23;97800.59;;;14.60;98.12
8894;BME280;4483;48.622;9.230;2023-05-07T05:43:50;97788.34;;;14.77;97.06
8894;BME280;4483;48.622;9.230;2023-05-07T05:46:17;97786.19;;;14.99;97.39
8894;BME280;4483;48.622;9.230;2023-05-07T05:48:43;97792.31;;;15.27;97.60
8894;BME280;4483;48.622;9.230;2023-05-07T05:51:10;97786.88;;;15.59;96.44
8894;BME280;4483;48.622;9.230;2023-05-07T05:53:36;97779.78;;;15.89;95.48
8894;BME280;4483;48.622;9.230;2023-05-07T05:56:03;97792.78;;;16.16;94.23
8894;BME280;4483;48.622;9.230;2023-05-07T05:58:31;97790.38;;;16.40;93.33
8894;BME280;4483;48.622;9.230;2023-05-07T06:00:58;97793.41;;;16.60;91.76
8894;BME280;4483;48.622;9.230;2023-05-07T06:03:25;97784.88;;;16.71;90.40
8894;BME280;4483;48.622;9.230;2023-05-07T06:05:51;97788.63;;;16.79;90.11
8894;BME280;4483;48.622;9.230;2023-05-07T06:08:18;97796.78;;;17.00;89.66
8894;BME280;4483;48.622;9.230;2023-05-07T06:10:45;97795.75;;;17.28;89.49
8894;BME280;4483;48.622;9.230;2023-05-07T06:13:11;97789.31;;;17.58;88.30
8894;BME280;4483;48.622;9.230;2023-05-07T06:15:39;97793.97;;;17.78;87.46
8894;BME280;4483;48.622;9.230;2023-05-07T06:18:06;97794.47;;;17.96;85.87
8894;BME280;4483;48.622;9.230;2023-05-07T06:20:32;97796.31;;;18.06;85.38
8894;BME280;4483;48.622;9.230;2023-05-07T06:22:59;97790.81;;;18.22;84.67
8894;BME280;4483;48.622;9.230;2023-05-07T06:25:26;97787.81;;;18.39;83.88
8894;BME280;4483;48.622;9.230;2023-05-07T06:27:52;97780.47;;;18.57;83.25
8894;BME280;4483;48.622;9.230;2023-05-07T06:30:19;97790.84;;;18.69;81.33
8894;BME280;4483;48.622;9.230;2023-05-07T06:32:47;97791.38;;;18.85;80.38
8894;BME280;4483;48.622;9.230;2023-05-07T06:35:13;97789.03;;;19.16;80.33
8894;BME280;4483;48.622;9.230;2023-05-07T06:37:41;97796.63;;;19.42;78.64
8894;BME280;4483;48.622;9.230;2023-05-07T06:40:08;97798.66;;;19.72;77.12
8894;BME280;4483;48.622;9.230;2023-05-07T06:42:35;97804.53;;;20.07;76.48
8894;BME280;4483;48.622;9.230;2023-05-07T06:45:02;97795.13;;;20.38;74.92
8894;BME280;4483;48.622;9.230;2023-05-07T06:47:29;97795.88;;;20.49;73.97
8894;BME280;4483;48.622;9.230;2023-05-07T06:49:57;97793.31;;;20.70;73.74
8894;BME280;4483;48.622;9.230;2023-05-07T06:52:24;97790.34;;;20.74;72.55
8894;BME280;4483;48.622;9.230;2023-05-07T06:54:51;97784.31;;;20.63;70.37
8894;BME280;4483;48.622;9.230;2023-05-07T06:57:17;97781.13;;;20.59;71.33
8894;BME280;4483;48.622;9.230;2023-05-07T06:59:44;97776.78;;;20.69;70.77
8894;BME280;4483;48.622;9.230;2023-05-07T07:02:11;97780.00;;;20.73;70.91
8894;BME280;4483;48.622;9.230;2023-05-07T07:04:37;97779.94;;;20.84;70.52
8894;BME280;4483;48.622;9.230;2023-05-07T07:07:05;97779.94;;;20.84;70.05
8894;BME280;4483;48.622;9.230;2023-05-07T07:09:32;97780.22;;;21.02;69.86
8894;BME280;4483;48.622;9.230;2023-05-07T07:11:58;97785.47;;;21.22;68.84
8894;BME280;4483;48.622;9.230;2023-05-07T07:14:25;97784.69;;;21.31;69.63
8894;BME280;4483;48.622;9.230;2023-05-07T07:16:51;97788.72;;;21.35;68.56
8894;BME280;4483;48.622;9.230;2023-05-07T07:19:18;97784.34;;;21.45;67.33
8894;BME280;4483;48.622;9.230;2023-05-07T07:21:45;97776.28;;;21.67;66.56
8894;BME280;4483;48.622;9.230;2023-05-07T07:24:14;97773.34;;;21.81;66.65
8894;BME280;4483;48.622;9.230;2023-05-07T07:26:44;97775.88;;;22.02;66.46
8894;BME280;4483;48.622;9.230;2023-05-07T07:29:11;97776.59;;;22.23;66.19
8894;BME280;4483;48.622;9.230;2023-05-07T07:31:37;97783.28;;;22.46;65.54
8894;BME280;4483;48.622;9.230;2023-05-07T07:34:04;97775.56;;;22.73;65.08
8894;BME280;4483;48.622;9.230;2023-05-07T07:36:30;97778.59;;;23.07;63.47
8894;BME280;4483;48.622;9.230;2023-05-07T07:38:57;97774.41;;;23.24;62.49
8894;BME280;4483;48.622;9.230;2023-05-07T07:41:25;97771.22;;;23.30;62.11
8894;BME280;4483;48.622;9.230;2023-05-07T07:43:51;97774.09;;;23.46;62.43
8894;BME280;4483;48.622;9.230;2023-05-07T07:46:18;97781.13;;;23.55;62.15
8894;BME280;4483;48.622;9.230;2023-05-07T07:48:44;97776.47;;;23.76;62.10
8894;BME280;4483;48.622;9.230;2023-05-07T07:51:11;97771.59;;;23.81;60.52
8894;BME280;4483;48.622;9.230;2023-05-07T07:53:37;97771.50;;;24.00;60.82
8894;BME280;4483;48.622;9.230;2023-05-07T07:56:04;97773.19;;;24.28;60.18
8894;BME280;4483;48.622;9.230;2023-05-07T07:58:32;97775.19;;;24.34;59.28
8894;BME280;4483;48.622;9.230;2023-05-07T08:01:00;97779.09;;;24.30;59.16
8894;BME280;4483;48.622;9.230;2023-05-07T08:03:27;97782.97;;;24.53;59.52
8894;BME280;4483;48.622;9.230;2023-05-07T08:05:57;97780.72;;;24.76;57.94
8894;BME280;4483;48.622;9.230;2023-05-07T08:08:23;97784.69;;;24.62;57.90
8894;BME280;4483;48.622;9.230;2023-05-07T08:10:50;97776.31;;;24.67;57.29
8894;BME280;4483;48.622;9.230;2023-05-07T08:13:17;97776.41;;;24.92;56.96
8894;BME280;4483;48.622;9.230;2023-05-07T08:15:45;97777.59;;;25.16;57.13
8894;BME280;4483;48.622;9.230;2023-05-07T08:18:12;97779.13;;;25.44;56.68
8894;BME280;4483;48.622;9.230;2023-05-07T08:20:38;97779.78;;;26.05;56.58
8894;BME280;4483;48.622;9.230;2023-05-07T08:23:06;97772.28;;;26.50;54.87
8894;BME280;4483;48.622;9.230;2023-05-07T08:25:33;97775.09;;;26.33;53.64
8894;BME280;4483;48.622;9.230;2023-05-07T08:28:00;97778.56;;;26.00;53.71
8894;BME280;4483;48.622;9.230;2023-05-07T08:30:28;97771.28;;;25.94;54.09
8894;BME280;4483;48.622;9.230;2023-05-07T08:32:56;97770.38;;;25.77;54.12
8894;BME280;4483;48.622;9.230;2023-05-07T08:35:23;97769.88;;;26.07;53.98
8894;BME280;4483;48.622;9.230;2023-05-07T08:37:50;97772.47;;;26.65;54.21
8894;BME280;4483;48.622;9.230;2023-05-07T08:40:17;97769.19;;;26.55;52.83
8894;BME280;4483;48.622;9.230;2023-05-07T08:42:44;97769.50;;;26.60;52.20
8894;BME280;4483;48.622;9.230;2023-05-07T08:45:12;97768.50;;;26.53;51.94
8894;BME280;4483;48.622;9.230;2023-05-07T08:47:43;97776.06;;;26.32;52.08
8894;BME280;4483;48.622;9.230;2023-05-07T08:50:12;97774.47;;;26.63;51.84
8894;BME280;4483;48.622;9.230;2023-05-07T08:52:39;97759.31;;;26.97;51.66
8894;BME280;4483;48.622;9.230;2023-05-07T08:55:07;97762.75;;;27.38;51.32
8894;BME280;4483;48.622;9.230;2023-05-07T08:57:34;97762.31;;;27.73;50.78
8894;BME280;4483;48.622;9.230;2023-05-07T09:00:00;97769.56;;;27.87;49.72
8894;BME280;4483;48.622;9.230;2023-05-07T09:02:28;97766.88;;;28.03;49.06
8894;BME280;4483;48.622;9.230;2023-05-07T09:04:54;97765.06;;;27.88;48.70
8894;BME280;4483;48.622;9.230;2023-05-07T09:07:22;97763.28;;;27.80;48.36
8894;BME280;4483;48.622;9.230;2023-05-07T09:09:49;97761.56;;;28.03;48.14
8894;BME280;4483;48.622;9.230;2023-05-07T09:12:17;97760.63;;;28.27;47.37
8894;BME280;4483;48.622;9.230;2023-05-07T09:14:43;97759.34;;;28.45;46.87
8894;BME280;4483;48.622;9.230;2023-05-07T09:17:11;97753.13;;;28.61;45.80
8894;BME280;4483;48.622;9.230;2023-05-07T09:19:37;97756.34;;;28.94;45.96
8894;BME280;4483;48.622;9.230;2023-05-07T09:22:05;97756.91;;;29.12;44.63
8894;BME280;4483;48.622;9.230;2023-05-07T09:24:33;97757.22;;;29.31;44.57
8894;BME280;4483;48.622;9.230;2023-05-07T09:27:03;97748.44;;;29.45;43.70
8894;BME280;4483;48.622;9.230;2023-05-07T09:29:30;97744.47;;;29.56;43.84
8894;BME280;4483;48.622;9.230;2023-05-07T09:32:00;97745.88;;;29.37;43.24
8894;BME280;4483;48.622;9.230;2023-05-07T09:34:27;97749.59;;;29.28;43.12
8894;BME280;4483;48.622;9.230;2023-05-07T09:36:53;97737.16;;;29.29;42.47
8894;BME280;4483;48.622;9.230;2023-05-07T09:39:20;97741.47;;;29.44;41.86
8894;BME280;4483;48.622;9.230;2023-05-07T09:41:48;97737.91;;;29.52;41.82
8894;BME280;4483;48.622;9.230;2023-05-07T09:44:16;97734.25;;;29.38;41.88
8894;BME280;4483;48.622;9.230;2023-05-07T09:46:44;97735.53;;;29.28;41.92
8894;BME280;4483;48.622;9.230;2023-05-07T09:49:20;97732.88;;;29.28;42.04
8894;BME280;4483;48.622;9.230;2023-05-07T09:51:48;97736.38;;;29.57;42.39
8894;BME280;4483;48.622;9.230;2023-05-07T09:54:16;97739.50;;;29.76;40.80
8894;BME280;4483;48.622;9.230;2023-05-07T09:56:42;97733.25;;;29.98;40.72
8894;BME280;4483;48.622;9.230;2023-05-07T09:59:13;97734.66;;;30.15;40.75
8894;BME280;4483;48.622;9.230;2023-05-07T10:01:41;97729.03;;;30.24;40.25
8894;BME280;4483;48.622;9.230;2023-05-07T10:04:09;97729.09;;;30.45;39.72
8894;BME280;4483;48.622;9.230;2023-05-07T10:06:37;97728.66;;;30.63;39.63
8894;BME280;4483;48.622;9.230;2023-05-07T10:09:04;97727.19;;;30.60;39.64
8894;BME280;4483;48.622;9.230;2023-05-07T10:11:32;97723.53;;;30.83;40.15
8894;BME280;4483;48.622;9.230;2023-05-07T10:13:59;97712.91;;;31.10;40.26
8894;BME280;4483;48.622;9.230;2023-05-07T10:16:28;97706.63;;;31.18;40.00
8894;BME280;4483;48.622;9.230;2023-05-07T10:18:58;97700.75;;;31.29;39.77
8894;BME280;4483;48.622;9.230;2023-05-07T10:21:26;97705.00;;;31.17;38.80
8894;BME280;4483;48.622;9.230;2023-05-07T10:23:58;97712.44;;;30.79;38.73
8894;BME280;4483;48.622;9.230;2023-05-07T10:26:27;97702.31;;;30.68;39.44
8894;BME280;4483;48.622;9.230;2023-05-07T10:28:59;97699.59;;;30.83;39.74
8894;BME280;4483;48.622;9.230;2023-05-07T10:31:52;97695.25;;;31.03;39.41
8894;BME280;4483;48.622;9.230;2023-05-07T10:34:22;97692.59;;;31.03;38.48
8894;BME280;4483;48.622;9.230;2023-05-07T10:36:51;97688.75;;;31.12;38.55
8894;BME280;4483;48.622;9.230;2023-05-07T10:39:19;97694.34;;;31.17;37.83
8894;BME280;4483;48.622;9.230;2023-05-07T10:41:47;97687.41;;;31.22;38.00
8894;BME280;4483;48.622;9.230;2023-05-07T10:44:25;97686.94;;;31.12;37.86
8894;BME280;4483;48.622;9.230;2023-05-07T10:47:05;97690.97;;;31.02;37.30
8894;BME280;4483;48.622;9.230;2023-05-07T10:49:34;97687.22;;;30.96;37.45
8894;BME280;4483;48.622;9.230;2023-05-07T10:52:14;97680.41;;;31.15;37.76
8894;BME280;4483;48.622;9.230;2023-05-07T10:54:41;97683.50;;;31.46;37.23
8894;BME280;4483;48.622;9.230;2023-05-07T10:57:33;97686.81;;;31.61;37.05
8894;BME280;4483;48.622;9.230;2023-05-07T11:00:02;97682.47;;;31.47;36.59
8894;BME280;4483;48.622;9.230;2023-05-07T11:03:05;97674.47;;;31.19;36.45
8894;BME280;4483;48.622;9.230;2023-05-07T11:05:33;97676.72;;;31.43;37.09
8894;BME280;4483;48.622;9.230;2023-05-07T11:08:01;97668.81;;;31.63;36.79
8894;BME280;4483;48.622;9.230;2023-05-07T11:10:49;97676.09;;;31.41;36.45
8894;BME280;4483;48.622;9.230;2023-05-07T11:13:16;97669.75;;;31.15;37.75
8894;BME280;4483;48.622;9.230;2023-05-07T11:15:45;97667.31;;;30.86;37.50
8894;BME280;4483;48.622;9.230;2023-05-07T11:18:14;97662.06;;;30.99;37.32
8894;BME280;4483;48.622;9.230;2023-05-07T11:20:52;97659.75;;;31.17;36.64
8894;BME280;4483;48.622;9.230;2023-05-07T11:26:45;97664.84;;;31.46;35.28
8894;BME280;4483;48.622;9.230;2023-05-07T11:29:16;97667.91;;;31.43;35.34
8894;BME280;4483;48.622;9.230;2023-05-07T11:31:43;97660.34;;;31.19;34.71
8894;BME280;4483;48.622;9.230;2023-05-07T11:34:11;97656.22;;;30.82;35.29
8894;BME280;4483;48.622;9.230;2023-05-07T11:36:43;97650.84;;;30.54;36.40
8894;BME280;4483;48.622;9.230;2023-05-07T11:39:26;97651.84;;;30.75;36.09
8894;BME280;4483;48.622;9.230;2023-05-07T11:41:53;97646.88;;;30.93;34.87
8894;BME280;4483;48.622;9.230;2023-05-07T11:44:20;97648.38;;;31.02;35.37
8894;BME280;4483;48.622;9.230;2023-05-07T11:46:46;97643.53;;;31.12;34.70
8894;BME280;4483;48.622;9.230;2023-05-07T11:49:14;97651.69;;;31.04;34.46
8894;BME280;4483;48.622;9.230;2023-05-07T11:51:41;97651.50;;;30.84;34.48
8894;BME280;4483;48.622;9.230;2023-05-07T11:54:08;97650.47;;;30.57;34.84
8894;BME280;4483;48.622;9.230;2023-05-07T11:56:37;97651.44;;;30.29;35.47
8894;BME280;4483;48.622;9.230;2023-05-07T11:59:04;97661.88;;;29.95;35.81
8894;BME280;4483;48.622;9.230;2023-05-07T12:01:31;97672.00;;;29.55;36.31
8894;BME280;4483;48.622;9.230;2023-05-07T12:03:57;97675.19;;;29.22;36.73
8894;BME280;4483;48.622;9.230;2023-05-07T12:06:25;97674.88;;;28.88;37.84
8894;BME280;4483;48.622;9.230;2023-05-07T12:08:53;97670.22;;;28.52;38.13
8894;BME280;4483;48.622;9.230;2023-05-07T12:11:23;97674.44;;;28.16;38.05
8894;BME280;4483;48.622;9.230;2023-05-07T12:13:50;97684.03;;;27.78;38.70
8894;BME280;4483;48.622;9.230;2023-05-07T12:16:17;97679.75;;;27.39;39.04
8894;BME280;4483;48.622;9.230;2023-05-07T12:18:44;97690.09;;;26.94;39.53
8894;BME280;4483;48.622;9.230;2023-05-07T12:21:11;97678.16;;;26.41;40.68
8894;BME280;4483;48.622;9.230;2023-05-07T12:23:39;97698.78;;;26.06;40.94
8894;BME280;4483;48.622;9.230;2023-05-07T12:26:06;97704.91;;;25.72;41.52
8894;BME280;4483;48.622;9.230;2023-05-07T12:28:36;97707.44;;;25.48;41.94
8894;BME280;4483;48.622;9.230;2023-05-07T12:31:05;97714.50;;;25.22;42.28
8894;BME280;4483;48.622;9.230;2023-05-07T12:33:32;97710.91;;;24.98;42.53
8894;BME280;4483;48.622;9.230;2023-05-07T12:36:03;97713.03;;;24.76;43.15
8894;BME280;4483;48.622;9.230;2023-05-07T12:38:34;97720.31;;;24.65;43.59
8894;BME280;4483;48.622;9.230;2023-05-07T12:41:03;97735.78;;;24.42;44.05
8894;BME280;4483;48.622;9.230;2023-05-07T12:43:30;97752.38;;;24.25;44.86
8894;BME280;4483;48.622;9.230;2023-05-07T12:45:59;97758.84;;;24.13;45.37
8894;BME280;4483;48.622;9.230;2023-05-07T12:48:27;97771.63;;;24.08;46.87
8894;BME280;4483;48.622;9.230;2023-05-07T12:50:54;97764.34;;;23.92;48.22
8894;BME280;4483;48.622;9.230;2023-05-07T12:53:23;97768.56;;;23.76;49.42
8894;BME280;4483;48.622;9.230;2023-05-07T12:55:52;97774.19;;;23.54;50.48
8894;BME280;4483;48.622;9.230;2023-05-07T12:58:22;97773.28;;;23.36;51.12
8894;BME280;4483;48.622;9.230;2023-05-07T13:00:50;97779.13;;;23.20;51.96
8894;BME280;4483;48.622;9.230;2023-05-07T13:03:24;97770.56;;;22.99;51.75
8894;BME280;4483;48.622;9.230;2023-05-07T13:05:52;97778.34;;;22.81;52.34
8894;BME280;4483;48.622;9.230;2023-05-07T13:08:30;97788.56;;;22.65;52.71
8894;BME280;4483;48.622;9.230;2023-05-07T13:10:57;97783.28;;;22.46;53.10
8894;BME280;4483;48.622;9.230;2023-05-07T13:13:26;97798.88;;;22.38;54.19
8894;BME280;4483;48.622;9.230;2023-05-07T13:15:52;97800.38;;;22.31;54.59
8894;BME280;4483;48.622;9.230;2023-05-07T13:18:19;97803.81;;;22.22;55.24
8894;BME280;4483;48.622;9.230;2023-05-07T13:20:46;97799.09;;;22.07;56.09
8894;BME280;4483;48.622;9.230;2023-05-07T13:23:12;97809.94;;;21.92;57.09